createdAt,value
2023-01-19T00:02:03.042Z,-0.07
2023-01-19T00:04:31.421Z,-0.09
2023-01-19T00:07:05.326Z,-0.12
2023-01-19T00:09:34.137Z,-0.09
2023-01-19T00:12:02.465Z,-0.12
2023-01-19T00:14:30.810Z,-0.07
2023-01-19T00:16:59.451Z,-0.09
2023-01-19T00:19:32.040Z,-0.07
2023-01-19T00:22:00.480Z,-0.10
2023-01-19T00:24:28.967Z,-0.10
2023-01-19T00:26:58.183Z,-0.09
2023-01-19T00:29:27.778Z,-0.06
2023-01-19T00:31:56.321Z,-0.04
2023-01-19T00:34:24.624Z,-0.06
2023-01-19T00:36:54.499Z,0.03
2023-01-19T00:39:22.919Z,0.04
2023-01-19T00:42:08.654Z,0.04
2023-01-19T00:44:37.054Z,0.04
2023-01-19T00:47:05.881Z,0.04
2023-01-19T00:49:36.923Z,0.03
2023-01-19T00:52:07.139Z,0.02
2023-01-19T00:54:35.481Z,0.06
2023-01-19T00:57:04.590Z,0.06
2023-01-19T00:59:32.970Z,0.05
2023-01-19T01:02:01.483Z,0.01
2023-01-19T01:04:30.113Z,-0.03
2023-01-19T01:06:58.454Z,-0.02
2023-01-19T01:09:28.161Z,0.02
2023-01-19T01:11:56.828Z,0.00
2023-01-19T01:14:25.258Z,0.01
2023-01-19T01:16:53.928Z,-0.01
2023-01-19T01:19:22.598Z,-0.03
2023-01-19T01:21:51.325Z,-0.07
2023-01-19T01:24:20.924Z,-0.07
2023-01-19T01:26:50.640Z,-0.04
2023-01-19T01:29:18.993Z,-0.03
2023-01-19T01:31:47.385Z,-0.07
2023-01-19T01:34:16.669Z,-0.05
2023-01-19T01:36:45.107Z,-0.02
2023-01-19T01:39:13.389Z,-0.03
2023-01-19T01:41:41.763Z,-0.02
2023-01-19T01:44:52.222Z,0.06
2023-01-19T01:47:25.638Z,0.05
2023-01-19T01:49:58.156Z,0.07
2023-01-19T01:52:29.230Z,0.06
2023-01-19T01:54:58.193Z,-0.01
2023-01-19T01:57:28.198Z,0.06
2023-01-19T01:59:59.739Z,0.05
2023-01-19T02:02:48.751Z,0.05
2023-01-19T02:05:19.640Z,0.02
2023-01-19T02:08:08.423Z,0.09
2023-01-19T02:10:54.274Z,0.04
2023-01-19T02:13:22.853Z,0.05
2023-01-19T02:15:53.633Z,0.06
2023-01-19T02:18:23.689Z,0.08
2023-01-19T02:21:01.377Z,0.02
2023-01-19T02:23:42.186Z,-0.03
2023-01-19T02:26:15.479Z,-0.02
2023-01-19T02:28:46.176Z,-0.02
2023-01-19T02:31:15.332Z,-0.08
2023-01-19T02:33:43.751Z,-0.12
2023-01-19T02:36:13.543Z,-0.13
2023-01-19T02:38:44.306Z,-0.18
2023-01-19T02:41:15.992Z,-0.22
2023-01-19T02:43:44.945Z,-0.26
2023-01-19T02:46:13.724Z,-0.26
2023-01-19T02:48:42.407Z,-0.28
2023-01-19T02:51:13.919Z,-0.29
2023-01-19T02:53:53.495Z,-0.29
2023-01-19T02:56:41.223Z,-0.25
2023-01-19T02:59:16.539Z,-0.21
2023-01-19T03:01:57.080Z,-0.13
2023-01-19T03:04:30.427Z,-0.12
2023-01-19T03:07:03.570Z,-0.09
2023-01-19T03:09:41.729Z,-0.10
2023-01-19T03:12:13.589Z,-0.05
2023-01-19T03:14:44.534Z,-0.08
2023-01-19T03:17:13.693Z,-0.02
2023-01-19T03:19:43.956Z,-0.06
2023-01-19T03:22:15.289Z,-0.08
2023-01-19T03:24:47.416Z,-0.08
2023-01-19T03:27:17.939Z,-0.07
2023-01-19T03:29:49.401Z,-0.04
2023-01-19T03:32:19.228Z,-0.08
2023-01-19T03:34:48.435Z,-0.09
2023-01-19T03:37:17.866Z,-0.01
2023-01-19T03:39:47.577Z,-0.04
2023-01-19T03:42:17.994Z,-0.03
2023-01-19T03:44:50.639Z,-0.01
2023-01-19T03:47:21.054Z,-0.03
2023-01-19T03:49:51.023Z,0.03
2023-01-19T03:52:19.502Z,-0.05
2023-01-19T03:54:49.317Z,0.05
2023-01-19T03:57:17.940Z,0.03
2023-01-19T03:59:46.222Z,0.01
2023-01-19T04:02:15.147Z,0.02
2023-01-19T04:04:43.720Z,0.01
2023-01-19T04:07:12.385Z,0.07
2023-01-19T04:09:41.934Z,0.08
2023-01-19T04:12:11.848Z,0.12
2023-01-19T04:14:40.168Z,0.20
2023-01-19T04:17:09.328Z,0.22
2023-01-19T04:19:37.840Z,0.23
2023-01-19T04:22:08.270Z,0.26
2023-01-19T04:24:36.589Z,0.28
2023-01-19T04:27:05.437Z,0.27
2023-01-19T04:29:35.232Z,0.29
2023-01-19T04:32:03.557Z,0.27
2023-01-19T04:34:31.940Z,0.32
2023-01-19T04:37:00.300Z,0.37
2023-01-19T04:39:28.739Z,0.37
2023-01-19T04:41:57.565Z,0.37
2023-01-19T04:44:25.942Z,0.39
2023-01-19T04:46:57.701Z,0.30
2023-01-19T04:49:26.187Z,0.41
2023-01-19T04:51:54.858Z,0.52
2023-01-19T04:54:23.634Z,0.50
2023-01-19T04:56:53.963Z,0.47
2023-01-19T04:59:22.330Z,0.41
2023-01-19T05:01:50.834Z,0.48
2023-01-19T05:04:22.489Z,0.48
2023-01-19T05:06:51.737Z,0.46
2023-01-19T05:09:21.410Z,0.42
2023-01-19T05:11:50.933Z,0.44
2023-01-19T05:14:19.303Z,0.48
2023-01-19T05:16:47.680Z,0.50
2023-01-19T05:19:16.082Z,0.57
2023-01-19T05:21:45.806Z,0.50
2023-01-19T05:24:14.349Z,0.55
2023-01-19T05:26:47.632Z,0.52
2023-01-19T05:29:16.003Z,0.54
2023-01-19T05:31:47.353Z,0.58
2023-01-19T05:34:18.510Z,0.60
2023-01-19T05:36:52.187Z,0.61
2023-01-19T05:39:20.590Z,0.67
2023-01-19T05:41:48.958Z,0.66
2023-01-19T05:44:17.328Z,0.68
2023-01-19T05:46:45.919Z,0.66
2023-01-19T05:49:14.451Z,0.70
2023-01-19T05:51:45.555Z,0.72
2023-01-19T05:54:18.328Z,0.78
2023-01-19T05:56:46.750Z,0.77
2023-01-19T05:59:15.445Z,0.83
2023-01-19T06:01:43.848Z,0.85
2023-01-19T06:04:12.218Z,0.86
2023-01-19T06:06:40.514Z,0.90
2023-01-19T06:09:09.035Z,0.87
2023-01-19T06:11:41.302Z,0.92
2023-01-19T06:14:10.967Z,0.88
2023-01-19T06:16:39.363Z,0.91
2023-01-19T06:19:07.930Z,0.89
2023-01-19T06:21:41.447Z,0.91
2023-01-19T06:24:11.690Z,0.95
2023-01-19T06:26:43.340Z,0.95
2023-01-19T06:29:12.504Z,1.01
2023-01-19T06:31:43.563Z,1.06
2023-01-19T06:34:12.264Z,1.03
2023-01-19T06:36:40.643Z,1.01
2023-01-19T06:39:12.824Z,0.99
2023-01-19T06:41:42.602Z,1.03
2023-01-19T06:44:10.949Z,1.04
2023-01-19T06:46:39.273Z,1.03
2023-01-19T06:49:07.747Z,1.06
2023-01-19T06:51:39.364Z,1.05
2023-01-19T06:54:07.787Z,1.06
2023-01-19T06:56:36.514Z,1.05
2023-01-19T06:59:08.638Z,1.09
2023-01-19T07:01:37.260Z,1.09
2023-01-19T07:04:05.872Z,1.11
2023-01-19T07:06:36.818Z,1.17
2023-01-19T07:09:17.871Z,1.13
2023-01-19T07:11:46.281Z,1.16
2023-01-19T07:14:16.725Z,1.22
2023-01-19T07:16:45.133Z,1.27
2023-01-19T07:19:14.358Z,1.27
2023-01-19T07:21:42.757Z,1.30
2023-01-19T07:24:13.225Z,1.32
2023-01-19T07:26:41.516Z,1.33
2023-01-19T07:29:10.044Z,1.31
2023-01-19T07:31:40.404Z,1.31
2023-01-19T07:34:09.186Z,1.33
2023-01-19T07:36:38.239Z,1.33
2023-01-19T07:39:06.585Z,1.33
2023-01-19T07:41:34.965Z,1.39
2023-01-19T07:44:04.802Z,1.41
2023-01-19T07:46:33.123Z,1.49
2023-01-19T07:49:02.848Z,1.43
2023-01-19T07:51:31.306Z,1.35
2023-01-19T07:53:59.785Z,1.40
2023-01-19T07:56:31.669Z,1.40
2023-01-19T07:59:01.347Z,1.46
2023-01-19T08:01:32.596Z,1.43
2023-01-19T08:04:02.450Z,1.44
2023-01-19T08:06:34.928Z,1.38
2023-01-19T08:09:05.721Z,1.40
2023-01-19T08:11:36.874Z,1.42
2023-01-19T08:14:08.132Z,1.43
2023-01-19T08:16:36.644Z,1.49
2023-01-19T08:19:06.379Z,1.45
2023-01-19T08:21:36.000Z,1.42
2023-01-19T08:24:06.603Z,1.51
2023-01-19T08:26:36.291Z,1.44
2023-01-19T08:29:06.827Z,1.51
2023-01-19T08:31:35.207Z,1.53
2023-01-19T08:34:05.560Z,1.61
2023-01-19T08:36:35.690Z,1.70
2023-01-19T08:39:09.343Z,1.69
2023-01-19T08:41:37.677Z,1.72
2023-01-19T08:44:11.330Z,1.75
2023-01-19T08:46:39.704Z,1.72
2023-01-19T08:49:12.866Z,1.76
2023-01-19T08:51:47.286Z,1.72
2023-01-19T08:54:18.578Z,1.66
2023-01-19T08:56:47.069Z,1.56
2023-01-19T08:59:15.455Z,1.62
2023-01-19T09:01:43.920Z,1.58
2023-01-19T09:04:12.540Z,1.57
2023-01-19T09:06:42.344Z,1.48
2023-01-19T09:09:10.834Z,1.61
2023-01-19T09:11:39.209Z,1.51
2023-01-19T09:14:08.353Z,1.51
2023-01-19T09:16:36.930Z,1.49
2023-01-19T09:19:08.738Z,1.42
2023-01-19T09:21:39.145Z,1.37
2023-01-19T09:24:12.303Z,1.43
2023-01-19T09:26:41.347Z,1.45
2023-01-19T09:29:09.724Z,1.44
2023-01-19T09:31:40.273Z,1.49
2023-01-19T09:34:08.756Z,1.44
2023-01-19T09:36:37.592Z,1.43
2023-01-19T09:39:06.015Z,1.42
2023-01-19T09:41:38.663Z,1.47
2023-01-19T09:44:11.320Z,1.45
2023-01-19T09:46:41.743Z,1.55
2023-01-19T09:49:14.482Z,1.51
2023-01-19T09:51:50.812Z,1.53
2023-01-19T09:54:20.822Z,1.55
2023-01-19T09:56:52.894Z,1.52
2023-01-19T09:59:23.363Z,1.51
2023-01-19T10:02:19.752Z,1.57
2023-01-19T10:04:55.817Z,1.49
2023-01-19T10:07:44.118Z,1.54
2023-01-19T10:10:22.252Z,1.61
2023-01-19T10:12:59.470Z,1.65
2023-01-19T10:15:37.644Z,1.64
2023-01-19T10:18:14.200Z,1.63
2023-01-19T10:20:47.253Z,1.66
2023-01-19T10:23:23.322Z,1.72
2023-01-19T10:25:52.254Z,1.56
2023-01-19T10:28:25.451Z,1.65
2023-01-19T10:30:55.817Z,1.67
2023-01-19T10:33:24.275Z,1.73
2023-01-19T10:35:52.884Z,1.72
2023-01-19T10:38:22.394Z,1.69
2023-01-19T10:40:56.560Z,1.74
2023-01-19T10:43:42.806Z,1.60
2023-01-19T10:46:20.748Z,1.72
2023-01-19T10:48:51.997Z,1.75
2023-01-19T10:51:20.641Z,1.70
2023-01-19T10:53:58.319Z,1.77
2023-01-19T10:56:29.615Z,1.76
2023-01-19T10:59:00.937Z,1.85
2023-01-19T11:01:30.702Z,1.76
2023-01-19T11:04:05.713Z,1.79
2023-01-19T11:06:35.838Z,1.84
2023-01-19T11:09:18.331Z,1.89
2023-01-19T11:11:49.538Z,1.91
2023-01-19T11:14:22.329Z,1.85
2023-01-19T11:16:53.525Z,1.67
2023-01-19T11:19:28.837Z,1.64
2023-01-19T11:22:16.732Z,1.53
2023-01-19T11:24:45.615Z,1.51
2023-01-19T11:27:17.987Z,1.56
2023-01-19T11:29:51.099Z,1.53
2023-01-19T11:32:22.635Z,1.49
2023-01-19T11:34:51.325Z,1.47
2023-01-19T11:37:31.500Z,1.48
2023-01-19T11:40:02.703Z,1.35
2023-01-19T11:42:34.637Z,1.39
2023-01-19T11:45:09.101Z,1.31
2023-01-19T11:47:40.829Z,1.27
2023-01-19T11:50:17.431Z,1.17
2023-01-19T11:52:47.515Z,1.20
2023-01-19T11:55:21.556Z,1.15
2023-01-19T11:57:54.867Z,1.15
2023-01-19T12:00:35.840Z,1.23
2023-01-19T12:03:09.891Z,1.13
2023-01-19T12:05:40.853Z,1.11
2023-01-19T12:08:14.533Z,1.09
2023-01-19T12:10:45.737Z,1.00
2023-01-19T12:13:24.602Z,1.03
2023-01-19T12:15:57.955Z,1.05
2023-01-19T12:18:29.778Z,1.08
2023-01-19T12:20:58.922Z,1.18
2023-01-19T12:23:38.105Z,1.15
2023-01-19T12:26:23.591Z,1.08
2023-01-19T12:28:54.461Z,1.12
2023-01-19T12:31:24.790Z,1.07
2023-01-19T12:33:53.177Z,1.11
2023-01-19T12:36:40.389Z,1.06
2023-01-19T12:39:17.120Z,1.12
2023-01-19T12:41:46.048Z,1.03
2023-01-19T12:44:22.904Z,1.02
2023-01-19T12:46:55.206Z,0.97
2023-01-19T12:49:29.315Z,0.98
2023-01-19T12:52:14.738Z,0.96
2023-01-19T12:54:47.999Z,0.90
2023-01-19T12:57:22.545Z,0.94
2023-01-19T12:59:57.555Z,0.92
2023-01-19T13:02:43.443Z,0.96
2023-01-19T13:05:20.218Z,0.90
2023-01-19T13:08:17.246Z,0.86
2023-01-19T13:11:19.767Z,0.90
2023-01-19T13:14:29.521Z,0.91
2023-01-19T13:17:02.774Z,0.90
2023-01-19T13:19:44.237Z,0.88
2023-01-19T13:22:53.427Z,0.91
2023-01-19T13:25:33.864Z,0.88
2023-01-19T13:28:02.611Z,0.81
2023-01-19T13:30:31.256Z,0.86
2023-01-19T13:33:04.945Z,0.76
2023-01-19T13:35:34.871Z,0.79
2023-01-19T13:38:03.694Z,0.73
2023-01-19T13:40:41.095Z,0.78
2023-01-19T13:43:17.422Z,0.84
2023-01-19T13:45:51.157Z,0.80
2023-01-19T13:48:24.642Z,0.73
2023-01-19T13:51:05.684Z,0.78
2023-01-19T13:53:34.648Z,0.81
2023-01-19T13:56:17.604Z,0.77
2023-01-19T13:59:10.405Z,0.83
2023-01-19T14:01:40.883Z,0.62
2023-01-19T14:04:25.480Z,0.65
2023-01-19T14:06:58.360Z,0.61
2023-01-19T14:09:26.890Z,0.62
2023-01-19T14:12:14.142Z,0.58
2023-01-19T14:14:43.126Z,0.58
2023-01-19T14:17:24.608Z,0.55
2023-01-19T14:19:54.235Z,0.49
2023-01-19T14:22:39.027Z,0.40
2023-01-19T14:25:33.072Z,0.40
2023-01-19T14:28:39.779Z,0.42
2023-01-19T14:31:21.808Z,0.51
2023-01-19T14:33:51.620Z,0.42
2023-01-19T14:36:31.175Z,0.45
2023-01-19T14:39:01.675Z,0.41
2023-01-19T14:41:37.496Z,0.39
2023-01-19T14:44:09.826Z,0.35
2023-01-19T14:46:38.563Z,0.40
2023-01-19T14:49:08.116Z,0.45
2023-01-19T14:51:36.644Z,0.51
2023-01-19T14:54:06.773Z,0.45
2023-01-19T14:56:35.973Z,0.39
2023-01-19T14:59:10.941Z,0.35
2023-01-19T15:01:39.418Z,0.39
2023-01-19T15:04:07.882Z,0.38
2023-01-19T15:06:40.658Z,0.43
2023-01-19T15:09:12.420Z,0.42
2023-01-19T15:11:41.252Z,0.34
2023-01-19T15:14:13.463Z,0.40
2023-01-19T15:16:43.983Z,0.41
2023-01-19T15:19:13.468Z,0.38
2023-01-19T15:21:42.445Z,0.28
2023-01-19T15:24:12.619Z,0.28
2023-01-19T15:26:42.015Z,0.28
2023-01-19T15:29:23.325Z,0.25
2023-01-19T15:31:52.120Z,0.27
2023-01-19T15:34:20.548Z,0.25
2023-01-19T15:36:49.217Z,0.24
2023-01-19T15:39:19.023Z,0.21
2023-01-19T15:41:47.449Z,0.24
2023-01-19T15:44:15.894Z,0.20
2023-01-19T15:46:44.296Z,0.23
2023-01-19T15:49:12.628Z,0.25
2023-01-19T15:51:41.051Z,0.21
2023-01-19T15:54:11.998Z,0.22
2023-01-19T15:56:43.270Z,0.10
2023-01-19T15:59:11.670Z,0.10
2023-01-19T16:01:41.935Z,0.13
2023-01-19T16:04:12.017Z,0.15
2023-01-19T16:06:40.430Z,0.21
2023-01-19T16:09:08.741Z,0.19
2023-01-19T16:11:37.937Z,0.22
2023-01-19T16:14:07.659Z,0.24
2023-01-19T16:16:38.259Z,0.17
2023-01-19T16:19:06.696Z,0.21
2023-01-19T16:21:35.108Z,0.15
2023-01-19T16:24:03.477Z,0.12
2023-01-19T16:26:34.514Z,0.19
2023-01-19T16:29:08.009Z,0.25
2023-01-19T16:31:38.895Z,0.23
2023-01-19T16:34:07.419Z,0.30
2023-01-19T16:36:40.392Z,0.22
2023-01-19T16:39:11.537Z,0.25
2023-01-19T16:41:43.451Z,0.30
2023-01-19T16:44:16.195Z,0.23
2023-01-19T16:46:47.288Z,0.24
2023-01-19T16:49:17.070Z,0.23
2023-01-19T16:51:45.800Z,0.21
2023-01-19T16:54:15.236Z,0.23
2023-01-19T16:56:43.877Z,0.21
2023-01-19T16:59:15.825Z,0.16
2023-01-19T17:01:46.220Z,0.15
2023-01-19T17:04:15.041Z,0.14
2023-01-19T17:06:43.442Z,0.16
2023-01-19T17:09:11.905Z,0.13
2023-01-19T17:11:43.546Z,0.15
2023-01-19T17:14:13.862Z,0.17
2023-01-19T17:16:42.998Z,0.12
2023-01-19T17:19:15.966Z,0.12
2023-01-19T17:21:46.546Z,0.19
2023-01-19T17:24:15.174Z,0.17
2023-01-19T17:26:45.994Z,0.19
2023-01-19T17:29:14.547Z,0.22
2023-01-19T17:31:44.705Z,0.17
2023-01-19T17:34:14.591Z,0.20
2023-01-19T17:36:42.977Z,0.16
2023-01-19T17:39:15.064Z,0.11
2023-01-19T17:41:43.490Z,0.09
2023-01-19T17:44:12.064Z,0.08
2023-01-19T17:46:40.909Z,0.04
2023-01-19T17:49:09.572Z,0.09
2023-01-19T17:51:39.484Z,0.01
2023-01-19T17:54:07.870Z,0.12
2023-01-19T17:56:38.912Z,0.12
2023-01-19T17:59:08.337Z,0.11
2023-01-19T18:01:40.439Z,0.16
2023-01-19T18:04:12.077Z,0.09
2023-01-19T18:06:42.359Z,0.10
2023-01-19T18:09:11.048Z,0.13
2023-01-19T18:11:39.451Z,0.12
2023-01-19T18:14:07.869Z,0.11
2023-01-19T18:16:37.108Z,0.14
2023-01-19T18:19:07.306Z,0.19
2023-01-19T18:21:35.741Z,0.19
2023-01-19T18:24:07.301Z,0.14
2023-01-19T18:26:37.702Z,0.30
2023-01-19T18:29:06.278Z,0.24
2023-01-19T18:31:34.811Z,0.24
2023-01-19T18:34:03.536Z,0.17
2023-01-19T18:36:32.888Z,0.22
2023-01-19T18:39:02.201Z,0.17
2023-01-19T18:41:32.257Z,0.17
2023-01-19T18:44:02.509Z,0.15
2023-01-19T18:46:30.999Z,0.14
2023-01-19T18:48:59.452Z,0.19
2023-01-19T18:51:27.993Z,0.20
2023-01-19T18:53:59.618Z,0.22
2023-01-19T18:56:28.370Z,0.14
2023-01-19T18:58:58.280Z,0.19
2023-01-19T19:01:31.527Z,0.20
2023-01-19T19:04:04.171Z,0.24
2023-01-19T19:06:32.693Z,0.23
2023-01-19T19:09:01.452Z,0.26
2023-01-19T19:11:29.929Z,0.26
2023-01-19T19:14:03.974Z,0.17
2023-01-19T19:16:35.413Z,0.29
2023-01-19T19:19:04.783Z,0.25
2023-01-19T19:21:33.627Z,0.30
2023-01-19T19:24:02.267Z,0.25
2023-01-19T19:26:31.409Z,0.28
2023-01-19T19:28:59.979Z,0.27
2023-01-19T19:31:32.227Z,0.25
2023-01-19T19:34:07.587Z,0.21
2023-01-19T19:36:36.223Z,0.24
2023-01-19T19:39:04.594Z,0.18
2023-01-19T19:41:33.440Z,0.25
2023-01-19T19:44:03.713Z,0.25
2023-01-19T19:46:34.926Z,0.15
2023-01-19T19:49:03.419Z,0.23
2023-01-19T19:51:31.962Z,0.17
2023-01-19T19:54:01.662Z,0.22
2023-01-19T19:56:31.464Z,0.30
2023-01-19T19:59:00.884Z,0.21
2023-01-19T20:01:33.729Z,0.24
2023-01-19T20:04:08.720Z,0.24
2023-01-19T20:06:39.179Z,0.31
2023-01-19T20:09:08.698Z,0.28
2023-01-19T20:11:37.793Z,0.29
2023-01-19T20:14:07.091Z,0.33
2023-01-19T20:16:35.779Z,0.27
2023-01-19T20:19:04.582Z,0.35
2023-01-19T20:21:35.767Z,0.37
2023-01-19T20:24:07.641Z,0.32
2023-01-19T20:26:37.912Z,0.32
2023-01-19T20:29:07.503Z,0.41
2023-01-19T20:31:37.426Z,0.38
2023-01-19T20:34:08.163Z,0.37
2023-01-19T20:36:38.266Z,0.32
2023-01-19T20:39:11.211Z,0.38
2023-01-19T20:41:45.125Z,0.39
2023-01-19T20:44:14.561Z,0.41
2023-01-19T20:46:43.360Z,0.41
2023-01-19T20:49:15.219Z,0.41
2023-01-19T20:51:47.022Z,0.41
2023-01-19T20:54:19.355Z,0.47
2023-01-19T20:56:47.841Z,0.51
2023-01-19T20:59:16.280Z,0.55
2023-01-19T21:01:45.222Z,0.54
2023-01-19T21:04:15.406Z,0.47
2023-01-19T21:06:45.845Z,0.51
2023-01-19T21:09:14.230Z,0.55
2023-01-19T21:11:42.588Z,0.62
2023-01-19T21:14:12.610Z,0.61
2023-01-19T21:16:42.644Z,0.64
2023-01-19T21:19:12.020Z,0.69
2023-01-19T21:21:42.766Z,0.71
2023-01-19T21:24:15.001Z,0.76
2023-01-19T21:26:43.592Z,0.88
2023-01-19T21:29:14.142Z,0.87
2023-01-19T21:31:42.654Z,0.84
2023-01-19T21:34:11.175Z,0.86
2023-01-19T21:36:39.587Z,0.83
2023-01-19T21:39:08.295Z,0.84
2023-01-19T21:41:39.937Z,0.84
2023-01-19T21:44:08.360Z,0.80
2023-01-19T21:46:39.662Z,0.80
2023-01-19T21:49:09.245Z,0.86
2023-01-19T21:51:40.391Z,0.89
2023-01-19T21:54:08.919Z,0.86
2023-01-19T21:56:39.163Z,0.85
2023-01-19T21:59:07.662Z,0.89
2023-01-19T22:01:36.438Z,0.92
2023-01-19T22:04:05.089Z,0.94
2023-01-19T22:06:35.238Z,0.96
2023-01-19T22:09:03.864Z,1.04
2023-01-19T22:11:32.548Z,1.02
2023-01-19T22:14:02.326Z,1.03
2023-01-19T22:16:31.187Z,1.00
2023-01-19T22:19:02.077Z,0.99
2023-01-19T22:21:33.642Z,0.99
2023-01-19T22:24:03.238Z,1.03
2023-01-19T22:26:34.299Z,1.07
2023-01-19T22:29:05.495Z,1.06
2023-01-19T22:31:34.154Z,1.11
2023-01-19T22:34:02.785Z,1.11
2023-01-19T22:36:34.045Z,1.16
2023-01-19T22:39:03.706Z,1.14
2023-01-19T22:41:36.193Z,1.18
2023-01-19T22:44:07.519Z,1.10
2023-01-19T22:46:37.553Z,1.13
2023-01-19T22:49:07.570Z,1.22
2023-01-19T22:51:36.542Z,1.26
2023-01-19T22:54:05.225Z,1.32
2023-01-19T22:56:35.480Z,1.28
2023-01-19T22:59:06.371Z,1.27
2023-01-19T23:01:36.171Z,1.35
2023-01-19T23:04:07.740Z,1.36
2023-01-19T23:06:37.758Z,1.29
2023-01-19T23:09:11.261Z,1.33
2023-01-19T23:11:40.867Z,1.29
2023-01-19T23:14:14.497Z,1.28
2023-01-19T23:16:42.889Z,1.22
2023-01-19T23:19:12.717Z,1.31
2023-01-19T23:21:41.602Z,1.32
2023-01-19T23:24:10.745Z,1.35
2023-01-19T23:26:39.726Z,1.28
2023-01-19T23:29:15.829Z,1.39
2023-01-19T23:31:45.913Z,1.38
2023-01-19T23:34:20.154Z,1.38
2023-01-19T23:36:48.612Z,1.33
2023-01-19T23:39:18.521Z,1.36
2023-01-19T23:41:47.355Z,1.37
2023-01-19T23:44:17.414Z,1.29
2023-01-19T23:46:46.008Z,1.44
2023-01-19T23:49:16.568Z,1.48
2023-01-19T23:51:44.990Z,1.49
2023-01-19T23:54:13.476Z,1.48
2023-01-19T23:56:42.821Z,1.56
2023-01-19T23:59:13.109Z,1.48
